Latest Weather Observations for Latrobe Valley

IDV60801

Issued at 4:03 am EST Wednesday 27 September 2017 (issued every 30 minutes, with the page automatically refreshed every 10 minutes)

About weather observations | Map of weather stations | Latest weather observations for VIC | Other Formats
Station Details ID: 085280 Name: LATROBE VALLEY AIRPORT Lat: -38.21 Lon: 146.47 Height: 55.7 m
Data from the previous 72 hours. | See also: Recent months at Latrobe Valley
Date/Time
EST
Temp
°C
App
Temp
°C
Dew
Point
°C
Rel
Hum
%
Delta-T
°C
Wind Press
QNH
hPa
Press
MSL
hPa
Rain since
9am
mm
Dir  Spd
km/h
Gust
km/h
Spd
kts
Gust
kts
27/04:00am 8.1 5.0 5.4 83 1.2 E 11 17 6 9 1012.7 1012.8 0.0
27/03:30am 7.7 5.3 5.2 84 1.1 ESE 7 11 4 6 1013.6 1013.6 0.0
27/03:00am 7.7 5.5 5.2 84 1.1 ENE 6 9 3 5 1013.8 1013.8 0.0
27/02:30am 7.7 5.2 5.0 83 1.2 E 7 13 4 7 1014.2 1014.2 0.0
27/02:00am 7.8 5.0 5.1 83 1.2 ESE 9 15 5 8 1014.3 1014.3 0.0
27/01:30am 7.7 4.5 5.2 84 1.1 E 11 17 6 9 1014.3 1014.3 0.0
27/01:00am 7.7 4.5 5.0 83 1.2 E 11 17 6 9 1014.7 1014.7 0.0
27/12:30am 7.8 4.6 5.1 83 1.2 ENE 11 19 6 10 1015.2 1015.2 0.0
27/12:00am 7.5 4.3 5.3 86 1.0 ENE 11 15 6 8 1015.3 1015.3 0.0
 
Date/Time
EST
Temp
°C
App
Temp
°C
Dew
Point
°C
Rel
Hum
%
Delta-T
°C
Wind Press
QNH
hPa
Press
MSL
hPa
Rain since
9am
mm
Dir  Spd
km/h
Gust
km/h
Spd
kts
Gust
kts
26/11:30pm 7.4 4.2 5.2 86 1.0 E 11 15 6 8 1015.2 1015.2 0.0
26/11:00pm 7.1 4.2 4.9 86 1.0 E 9 15 5 8 1016.2 1016.2 0.0
26/10:30pm 7.1 4.2 4.9 86 1.0 E 9 11 5 6 1016.3 1016.3 0.0
26/10:00pm 7.6 5.2 5.1 84 1.1 E 7 9 4 5 1016.7 1016.7 0.0
26/09:30pm 8.0 4.8 5.3 83 1.2 ENE 11 15 6 8 1016.8 1016.8 0.0
26/09:00pm 7.4 4.2 4.9 84 1.1 NE 11 15 6 8 1017.1 1017.1 0.0
26/08:30pm 8.6 5.8 5.2 79 1.5 ENE 9 13 5 7 1017.0 1017.0 0.0
26/08:00pm 7.7 4.8 4.8 82 1.3 E 9 11 5 6 1017.1 1017.1 0.0
26/07:30pm 8.4 7.2 4.6 77 1.7 CALM 0 0 0 0 1016.4 1016.4 0.0
26/07:00pm 9.4 8.2 4.4 71 2.2 CALM 0 0 0 0 1016.3 1016.3 0.0
26/06:30pm 11.6 10.1 4.8 63 3.1 SSW 2 7 1 4 1016.3 1016.3 0.0
26/06:00pm 12.5 10.0 4.7 59 3.6 S 7 11 4 6 1016.1 1016.1 0.0
26/05:30pm 13.4 10.1 4.3 54 4.2 SSW 11 15 6 8 1016.3 1016.3 0.0
26/05:00pm 14.0 10.3 4.3 52 4.5 SSW 13 20 7 11 1016.0 1016.0 0.0
26/04:30pm 14.8 10.5 5.3 53 4.5 SW 17 22 9 12 1015.9 1015.9 0.0
26/04:00pm 14.9 9.7 3.7 47 5.1 WSW 20 28 11 15 1015.9 1015.9 0.0
26/03:30pm 14.7 10.1 3.8 48 5.0 SW 17 22 9 12 1015.8 1015.8 0.0
26/03:00pm 15.1 10.6 4.2 48 5.0 WSW 17 28 9 15 1016.1 1016.1 0.0
26/02:30pm 15.0 10.2 4.7 50 4.8 SW 19 28 10 15 1016.5 1016.5 0.0
26/02:00pm 15.0 11.3 4.4 49 4.9 W 13 22 7 12 1016.6 1016.6 0.0
26/01:30pm 13.4 10.0 4.0 53 4.3 W 11 19 6 10 1017.0 1017.0 0.0
26/01:00pm 12.9 10.0 4.6 57 3.8 SSW 9 19 5 10 1017.1 1017.1 0.0
26/12:30pm 12.6 9.0 5.1 60 3.5 SW 13 17 7 9 1017.6 1017.6 0.0
26/12:00pm 12.2 8.2 5.1 62 3.3 SSW 15 22 8 12 1017.7 1017.7 0.0
26/11:30am 12.5 8.1 5.0 60 3.5 WSW 17 20 9 11 1017.9 1017.9 0.0
26/11:00am 11.8 8.3 5.4 65 3.0 SW 13 19 7 10 1017.9 1017.9 0.0
26/10:30am 11.6 8.4 5.3 65 2.9 W 11 17 6 9 1018.1 1018.1 0.0
26/10:00am 11.9 8.2 6.2 68 2.7 WNW 15 22 8 12 1018.0 1018.0 0.0
26/09:30am 10.6 7.3 6.2 74 2.1 WNW 13 17 7 9 1018.4 1018.4 0.0
26/09:00am 10.2 6.9 6.4 77 1.8 WNW 13 17 7 9 1018.1 1018.1 0.2
26/08:30am 9.7 6.3 6.1 78 1.7 W 13 22 7 12 1018.1 1018.1 0.2
26/08:00am 9.5 6.2 6.4 81 1.4 WNW 13 19 7 10 1017.8 1017.8 0.2
26/07:30am 9.1 5.4 6.2 82 1.3 WNW 15 20 8 11 1017.6 1017.6 0.2
26/07:00am 7.5 4.4 5.5 87 0.9 W 11 17 6 9 1017.3 1017.3 0.2
26/06:30am 7.3 4.3 5.8 90 0.7 WNW 11 15 6 8 1017.1 1017.1 0.2
26/06:00am 6.8 4.1 5.4 91 0.6 WSW 9 13 5 7 1016.8 1016.8 0.2
26/05:30am 6.2 3.7 4.5 89 0.7 WNW 7 9 4 5 1016.4 1016.4 0.2
26/05:00am 7.2 4.1 5.5 89 0.8 SW 11 15 6 8 1016.1 1016.1 0.2
26/04:30am 7.1 2.8 5.3 88 0.8 WNW 17 20 9 11 1015.8 1015.8 0.2
26/04:00am 7.6 3.4 5.7 88 0.9 W 17 24 9 13 1015.7 1015.7 0.2
26/03:30am 7.1 3.3 5.6 90 0.7 W 15 22 8 12 1015.4 1015.4 0.2
26/03:00am 6.6 3.0 4.8 88 0.8 WNW 13 17 7 9 1015.4 1015.4 0.2
26/02:30am 7.8 3.5 5.3 84 1.1 W 17 24 9 13 1015.4 1015.4 0.2
26/02:00am 6.7 3.0 4.4 85 1.0 W 13 17 7 9 1015.4 1015.4 0.2
26/01:30am 8.0 3.6 4.9 81 1.4 WNW 17 24 9 13 1015.2 1015.2 0.2
26/01:00am 7.4 3.4 5.0 85 1.1 W 15 20 8 11 1015.4 1015.4 0.2
26/12:30am 6.7 3.7 4.2 84 1.1 SW 9 13 5 7 1015.2 1015.2 0.2
26/12:00am 6.9 3.2 4.4 84 1.1 W 13 19 7 10 1015.0 1015.0 0.2
 
Date/Time
EST
Temp
°C
App
Temp
°C
Dew
Point
°C
Rel
Hum
%
Delta-T
°C
Wind Press
QNH
hPa
Press
MSL
hPa
Rain since
9am
mm
Dir  Spd
km/h
Gust
km/h
Spd
kts
Gust
kts
25/11:30pm 7.7 3.8 5.2 84 1.1 W 15 19 8 10 1014.7 1014.7 0.2
25/11:00pm 7.0 3.3 4.7 85 1.0 W 13 17 7 9 1014.7 1014.7 0.2
25/10:30pm 7.4 3.7 4.5 82 1.3 W 13 17 7 9 1014.5 1014.5 0.2
25/10:00pm 8.5 4.2 5.3 80 1.4 W 17 26 9 14 1014.4 1014.4 0.2
25/09:30pm 8.0 4.1 5.3 83 1.2 WNW 15 20 8 11 1014.2 1014.2 0.2
25/09:00pm 8.5 3.6 5.3 80 1.4 W 20 26 11 14 1014.0 1014.0 0.2
25/08:30pm 8.9 4.2 5.3 78 1.6 W 19 26 10 14 1013.7 1013.7 0.2
25/08:00pm 8.9 4.2 5.1 77 1.7 W 19 22 10 12 1013.1 1013.2 0.2
25/07:30pm 9.4 3.9 4.2 70 2.3 W 22 30 12 16 1012.5 1012.6 0.2
25/07:00pm 10.2 4.0 4.1 66 2.7 W 26 32 14 17 1012.1 1012.2 0.2
25/06:30pm 10.5 5.5 4.6 67 2.7 W 20 43 11 23 1011.8 1011.9 0.2
25/06:00pm 10.8 4.3 4.9 67 2.7 WSW 28 35 15 19 1011.2 1011.3 0.2
25/05:30pm 10.7 4.4 5.5 70 2.4 WSW 28 37 15 20 1010.8 1010.9 0.2
25/05:00pm 11.4 4.3 5.7 68 2.7 WSW 32 43 17 23 1010.4 1010.5 0.2
25/04:30pm 11.7 4.6 6.2 69 2.6 WSW 33 44 18 24 1009.8 1009.9 0.2
25/04:00pm 11.3 3.4 6.2 71 2.4 WSW 37 56 20 30 1009.5 1009.6 0.2
25/03:59pm 11.4 3.6 6.5 72 2.3 WSW 37 56 20 30 1009.4 1009.5 0.2
25/03:30pm 11.4 4.4 6.9 74 2.1 SW 33 43 18 23 1009.0 1009.1 0.2
25/03:00pm 11.3 2.7 6.4 72 2.3 WSW 41 52 22 28 1008.5 1008.6 0.2
25/02:30pm 12.6 5.7 7.1 69 2.7 W 33 46 18 25 1008.4 1008.5 0.2
25/02:00pm 11.7 4.3 6.8 72 2.3 WSW 35 44 19 24 1008.3 1008.4 0.2
25/01:44pm 11.9 5.1 7.0 72 2.4 WSW 32 50 17 27 1008.1 1008.2 0.0
25/01:30pm 13.2 7.3 7.4 68 2.8 W 28 37 15 20 1007.9 1008.0 0.0
25/01:00pm 13.6 6.7 6.5 62 3.4 WSW 32 44 17 24 1007.6 1007.6 0.0
25/12:43pm 13.8 6.7 5.7 58 3.8 W 32 50 17 27 1007.5 1007.5 0.0
25/12:30pm 14.4 7.8 7.9 65 3.2 W 32 44 17 24 1007.4 1007.4 0.0
25/12:00pm 14.0 7.9 6.6 61 3.6 W 28 39 15 21 1007.3 1007.3 0.0
25/11:30am 12.5 5.0 6.3 66 2.9 W 35 46 19 25 1007.2 1007.2 0.0
25/11:00am 13.7 6.8 6.3 61 3.6 W 32 44 17 24 1006.9 1006.9 0.0
25/10:30am 13.6 8.4 8.7 72 2.5 W 26 39 14 21 1006.9 1006.9 0.0
25/10:00am 13.0 7.9 9.3 78 1.9 W 26 39 14 21 1006.7 1006.7 0.0
25/09:30am 12.8 6.7 9.8 82 1.5 W 32 44 17 24 1006.5 1006.5 0.0
25/09:00am 12.5 6.2 9.7 83 1.4 WNW 33 44 18 24 1006.0 1006.0 1.6
25/08:30am 12.0 6.7 9.7 86 1.2 WNW 28 35 15 19 1005.8 1005.8 1.6
25/08:00am 11.2 7.1 10.0 92 0.6 W 22 28 12 15 1005.4 1005.4 1.6
25/07:45am 10.6 6.3 9.5 93 0.6 WNW 22 30 12 16 1005.3 1005.3 1.6
25/07:34am 10.3 5.6 9.1 92 0.6 W 24 30 13 16 1005.2 1005.2 1.6
25/07:30am 10.3 5.6 9.1 92 0.6 W 24 30 13 16 1005.2 1005.2 1.6
25/07:00am 9.9 5.1 8.7 92 0.6 W 24 32 13 17 1004.8 1004.8 1.4
25/06:30am 9.6 3.9 8.2 91 0.7 WNW 28 39 15 21 1004.4 1004.4 1.4
25/06:00am 10.0 3.9 8.3 89 0.8 W 30 37 16 20 1003.9 1003.9 1.2
25/05:30am 10.7 5.4 8.6 87 1.0 WSW 26 35 14 19 1003.5 1003.5 0.4
25/05:00am 11.3 6.7 8.0 80 1.6 W 22 28 12 15 1002.8 1002.8 0.2
25/04:30am 11.8 5.2 7.7 76 2.0 W 32 44 17 24 1002.5 1002.5 0.2
25/04:00am 12.1 5.3 7.6 74 2.2 WNW 33 46 18 25 1002.2 1002.2 0.2
25/03:30am 12.0 5.2 7.7 75 2.1 W 33 46 18 25 1001.9 1001.9 0.2
25/03:00am 12.0 5.4 7.7 75 2.1 W 32 48 17 26 1002.0 1002.0 0.2
25/02:53am 12.0 5.8 7.9 76 2.0 W 30 48 16 26 1001.9 1001.9 0.2
25/02:30am 12.0 5.9 8.1 77 1.9 W 30 43 16 23 1001.8 1001.8 0.2
25/02:00am 11.6 5.1 8.1 79 1.7 W 32 44 17 24 1001.9 1001.9 0.2
25/01:34am 12.5 6.2 7.6 72 2.4 W 30 48 16 26 1001.9 1001.9 0.2
25/01:30am 12.5 5.9 7.6 72 2.4 W 32 48 17 26 1001.8 1001.8 0.2
25/01:00am 13.1 6.3 7.1 67 2.9 W 32 43 17 23 1001.6 1001.6 0.2
25/12:33am 13.5 7.1 7.1 65 3.1 W 30 48 16 26 1001.3 1001.3 0.2
25/12:30am 13.6 6.8 6.9 64 3.3 W 32 43 17 23 1001.4 1001.4 0.2
25/12:15am 14.1 6.6 6.2 59 3.8 WNW 35 56 19 30 1001.2 1001.2 0.2
25/12:00am 13.7 7.3 7.0 64 3.3 WNW 30 41 16 22 1001.1 1001.1 0.2
 
Date/Time
EST
Temp
°C
App
Temp
°C
Dew
Point
°C
Rel
Hum
%
Delta-T
°C
Wind Press
QNH
hPa
Press
MSL
hPa
Rain since
9am
mm
Dir  Spd
km/h
Gust
km/h
Spd
kts
Gust
kts
24/11:30pm 14.3 6.4 6.2 58 3.9 WNW 37 56 20 30 1000.8 1000.8 0.2
24/11:00pm 14.9 6.8 5.4 53 4.5 WNW 37 57 20 31 1000.4 1000.4 0.2
24/10:39pm 15.0 8.6 5.2 52 4.6 WNW 28 48 15 26 1000.1 1000.1 0.2
24/10:30pm 14.4 8.9 5.7 56 4.1 WNW 24 33 13 18 1000.1 1000.1 0.2
24/10:00pm 13.1 8.5 6.5 64 3.2 WNW 20 35 11 19 1000.0 1000.0 0.2
24/09:30pm 13.2 4.3 7.0 66 3.0 WNW 43 72 23 39 999.9 999.9 0.2
24/09:22pm 13.8 3.9 6.7 62 3.4 WNW 48 72 26 39 999.5 999.5 0.2
24/09:21pm 14.3 4.4 6.4 59 3.8 WNW 48 72 26 39 999.6 999.6 0.2
24/09:09pm 16.0 8.4 3.8 44 5.6 WNW 33 59 18 32 999.0 999.0 0.2
24/09:00pm 15.0 7.8 5.0 51 4.7 W 32 48 17 26 999.0 999.0 0.2
24/08:39pm 16.1 8.7 3.9 44 5.7 WNW 32 50 17 27 998.8 998.8 0.2
24/08:30pm 15.2 8.7 4.9 50 4.8 WNW 28 39 15 21 998.7 998.7 0.2
24/08:15pm 15.5 9.8 4.8 49 5.0 WNW 24 43 13 23 998.7 998.7 0.2
24/08:00pm 14.7 11.7 5.8 55 4.3 W 11 17 6 9 998.5 998.5 0.2
24/07:30pm 15.7 10.5 5.3 50 5.0 WNW 22 32 12 17 998.3 998.3 0.2
24/07:00pm 15.4 10.5 5.3 51 4.8 WNW 20 33 11 18 997.7 997.7 0.2
24/06:30pm 14.8 10.2 5.6 54 4.4 WNW 19 30 10 16 997.3 997.3 0.2
24/06:00pm 14.4 10.3 6.3 58 3.9 WNW 17 28 9 15 997.5 997.5 0.2
24/05:30pm 14.6 9.9 6.2 57 4.0 WNW 20 33 11 18 997.5 997.5 0.2
24/05:02pm 14.6 6.8 6.7 59 3.8 NW 37 56 20 30 997.4 997.4 0.2
24/05:00pm 14.5 6.3 6.6 59 3.9 NW 39 56 21 30 997.5 997.5 0.2
24/04:52pm 16.7 10.3 5.0 46 5.6 NW 28 48 15 26 997.2 997.2 0.2
24/04:30pm 17.5 9.9 5.8 46 5.7 WNW 35 50 19 27 996.7 996.7 0.2
24/04:18pm 18.1 10.6 4.7 41 6.4 NW 33 56 18 30 996.4 996.4 0.2
24/04:00pm 18.1 10.1 3.9 39 6.8 NW 35 52 19 28 996.2 996.2 0.2
24/03:33pm 18.3 10.1 4.5 40 6.6 WNW 37 56 20 30 996.4 996.4 0.2
24/03:30pm 18.2 9.6 4.7 41 6.5 WNW 39 56 21 30 996.5 996.5 0.2
24/03:00pm 18.3 9.6 4.1 39 6.8 NW 39 63 21 34 996.7 996.7 0.2
24/02:43pm 18.8 11.3 4.6 39 6.8 NW 33 52 18 28 996.8 996.8 0.2
24/02:30pm 18.0 9.9 3.1 37 6.9 WNW 35 48 19 26 996.8 996.8 0.2
24/02:00pm 17.9 10.6 4.5 41 6.4 WNW 32 50 17 27 997.1 997.1 0.2
24/01:36pm 17.6 9.7 4.6 42 6.2 WNW 35 57 19 31 997.4 997.4 0.2
24/01:30pm 18.0 10.6 4.9 42 6.3 WNW 33 48 18 26 997.3 997.3 0.2
24/01:00pm 18.4 11.1 5.3 42 6.4 WNW 33 44 18 24 997.5 997.5 0.2
24/12:30pm 18.4 11.5 7.2 48 5.7 WNW 33 48 18 26 997.7 997.7 0.2
24/12:00pm 18.0 10.2 6.5 47 5.8 WNW 37 65 20 35 997.9 997.9 0.2
24/11:47am 17.7 11.4 7.2 50 5.3 NW 30 48 16 26 998.0 998.0 0.2
24/11:30am 17.0 10.0 6.8 51 5.1 WNW 33 48 18 26 998.1 998.1 0.2
24/11:00am 16.7 8.1 6.5 51 5.1 WNW 41 65 22 35 998.3 998.3 0.2
24/10:30am 16.3 8.8 6.4 52 4.8 WNW 35 57 19 31 998.6 998.6 0.2
24/10:00am 14.3 7.8 8.0 66 3.2 W 32 52 17 28 998.6 998.6 0.2
24/09:31am 11.4 2.3 8.3 81 1.5 WSW 46 63 25 34 998.3 998.3 0.2
24/09:30am 11.4 2.2 8.1 80 1.6 WSW 46 63 25 34 998.2 998.2 0.2
24/09:27am 11.7 2.0 7.6 76 2.0 W 48 63 26 34 997.8 997.8 0.2
24/09:02am 16.2 8.1 7.2 55 4.5 WNW 39 57 21 31 997.3 997.3 0.0
24/09:00am 16.3 7.7 6.4 52 4.9 WNW 41 57 22 31 997.2 997.2 0.0
24/08:39am 15.9 9.0 6.3 53 4.7 NW 32 54 17 29 997.1 997.1 0.0
24/08:30am 15.3 9.1 6.3 55 4.4 NW 28 43 15 23 997.2 997.2 0.0
24/08:04am 14.1 7.7 5.2 55 4.2 NW 28 48 15 26 997.6 997.6 0.0
24/08:00am 14.8 9.8 4.8 51 4.7 NW 20 35 11 19 997.2 997.2 0.0
24/07:30am 13.3 10.3 6.2 62 3.4 NNE 11 13 6 7 996.9 996.9 0.0
24/07:00am 11.5 9.5 6.2 70 2.5 ENE 6 7 3 4 997.3 997.3 0.0
24/06:30am 11.1 8.8 5.0 66 2.8 SW 6 7 3 4 997.5 997.5 0.0
24/06:00am 11.9 8.7 5.1 63 3.2 WNW 11 13 6 7 997.8 997.8 0.0
24/05:30am 12.7 8.8 5.4 61 3.4 W 15 28 8 15 998.2 998.2 0.0
24/05:00am 12.2 9.3 6.3 67 2.8 W 11 15 6 8 998.5 998.5 0.0
24/04:30am 12.6 9.3 6.2 65 3.0 WSW 13 20 7 11 998.3 998.3 0.0

Other Formats:

Comma delimited format used in spreadsheet applications
http://www.bom.gov.au/fwo/IDV60801/IDV60801.94891.axf

JavaScript Object Notation format (JSON) in row-major order
http://www.bom.gov.au/fwo/IDV60801/IDV60801.94891.json